This is the latest recevied weather packets stored in our database for station/object DH0DM-13. If no packets are shown the sender has not sent any weather packets the latest 10 day(s).
| Time | Temp. | Humidity | Pressure | Rain* | Wind** | Luminosity | Snow |
|---|---|---|---|---|---|---|---|
| 1777613660 | 8.89° C | 71% | 1003 hPa | 0 mm | 0 m/s | - | - |
| 1777613059 | 8.89° C | 71% | 1002.8 hPa | 0 mm | 2.24 m/s, 157° | - | - |
| 1777612458 | 7.78° C | 75% | 1003 hPa | 0 mm | 0.89 m/s, 164° | - | - |
| 1777611857 | 5.56° C | 84% | 1002.9 hPa | 0 mm | 0 m/s | - | - |
| 1777611256 | 3.89° C | 87% | 1002.9 hPa | 0 mm | 1.34 m/s, 169° | - | - |
| 1777610655 | 3.33° C | 89% | 1002.9 hPa | 0 mm | 1.79 m/s, 157° | - | - |
| 1777610054 | 2.78° C | 90% | 1002.8 hPa | 0 mm | 0 m/s | - | - |
| 1777609454 | 2.22° C | 91% | 1002.8 hPa | 0 mm | 0 m/s | - | - |
| 1777608853 | 1.67° C | 92% | 1002.8 hPa | 0 mm | 0 m/s | - | - |
| 1777608252 | 1.67° C | 92% | 1002.7 hPa | 0 mm | 0 m/s | - | - |
| 1777607050 | 1.67° C | 92% | 1002.6 hPa | 0 mm | 0 m/s | - | - |
| 1777606449 | 1.67° C | 92% | 1002.5 hPa | 0 mm | 0 m/s | - | - |
| 1777605848 | 1.67° C | 90% | 1002.7 hPa | 0 mm | 0 m/s | - | - |
| 1777605248 | 2.22° C | 90% | 1002.6 hPa | 0 mm | 0 m/s | - | - |
| 1777604646 | 2.22° C | 91% | 1002.8 hPa | 0 mm | 0 m/s | - | - |
| 1777604045 | 1.67° C | 91% | 1002.6 hPa | 0 mm | 0 m/s | - | - |
| 1777603445 | 1.67° C | 91% | 1002.7 hPa | 0 mm | 0 m/s | - | - |
| 1777602844 | 2.22° C | 90% | 1002.8 hPa | 0 mm | 0 m/s | - | - |
| 1777602243 | 2.22° C | 90% | 1002.8 hPa | 0 mm | 0 m/s | - | - |
| 1777601642 | 2.22° C | 90% | 1002.8 hPa | 0 mm | 0 m/s | - | - |
| 1777601041 | 2.22° C | 91% | 1002.8 hPa | 0 mm | 0 m/s | - | - |
| 1777600440 | 2.22° C | 91% | 1002.7 hPa | 0 mm | 0 m/s | - | - |
| 1777599839 | 2.22° C | 91% | 1002.6 hPa | 0 mm | 0 m/s | - | - |
| 1777599238 | 2.22° C | 90% | 1002.6 hPa | 0 mm | 0 m/s | - | - |
| 1777598637 | 2.78° C | 88% | 1002.5 hPa | 0 mm | 0 m/s | - | - |
* Rain since midnight (hover to see other rain measurements)
** Current wind speed in m/s (hover to see current wind gust speed)